Time;durP1;ratioP1;P1;durP2;ratioP2;P2;SDS_P1;SDS_P2;PMS_P1;PMS_P2;Temp;Humidity;BMP_temperature;BMP_pressure;BME280_temperature;BME280_humidity;BME280_pressure;Samples;Min_cycle;Max_cycle;Signal;HPM_P1;HPM_P2
2022/04/18 00:00:03;;;;;;;0.00;0.00;;;;;;;;;;1742006;28;20201;-59
2022/04/18 00:00:55;;;;;;;0.00;0.00;;;;;;;;;;1738179;28;20645;-58
2022/04/18 00:01:47;;;;;;;0.00;0.00;;;;;;;;;;1740333;28;20226;-58
2022/04/18 00:02:38;;;;;;;0.00;0.00;;;;;;;;;;1739448;28;20676;-57
2022/04/18 00:03:30;;;;;;;0.00;0.00;;;;;;;;;;1738546;28;20198;-59
2022/04/18 00:04:21;;;;;;;0.00;0.00;;;;;;;;;;1742737;28;20214;-60
2022/04/18 00:05:14;;;;;;;0.00;0.00;;;;;;;;;;1741058;28;20766;-57
2022/04/18 00:06:05;;;;;;;0.00;0.00;;;;;;;;;;1742858;28;20652;-57
2022/04/18 00:06:57;;;;;;;0.00;0.00;;;;;;;;;;1742747;28;20207;-58
2022/04/18 00:07:48;;;;;;;0.00;0.00;;;;;;;;;;1745656;28;20210;-58
2022/04/18 00:08:40;;;;;;;0.00;0.00;;;;;;;;;;1743439;28;20205;-58
2022/04/18 00:09:33;;;;;;;0.00;0.00;;;;;;;;;;1739177;28;20199;-58
2022/04/18 00:10:25;;;;;;;0.00;0.00;;;;;;;;;;1738388;28;20206;-58
2022/04/18 00:11:16;;;;;;;0.00;0.00;;;;;;;;;;1739154;28;20203;-59
2022/04/18 00:12:09;;;;;;;0.00;0.00;;;;;;;;;;1742549;28;20199;-57
2022/04/18 00:13:00;;;;;;;0.00;0.00;;;;;;;;;;1745317;28;20206;-59
2022/04/18 00:13:52;;;;;;;0.00;0.00;;;;;;;;;;1743352;28;20221;-57
2022/04/18 00:14:44;;;;;;;0.00;0.00;;;;;;;;;;1738687;28;20206;-58
2022/04/18 00:15:36;;;;;;;0.00;0.00;;;;;;;;;;1740004;28;20240;-59
2022/04/18 00:16:27;;;;;;;0.00;0.00;;;;;;;;;;1738012;28;20223;-60
2022/04/18 00:17:20;;;;;;;0.00;0.00;;;;;;;;;;1740046;28;20207;-58
2022/04/18 00:18:11;;;;;;;0.00;0.00;;;;;;;;;;1738731;28;20388;-59
2022/04/18 00:19:03;;;;;;;0.00;0.00;;;;;;;;;;1742154;28;20198;-60
2022/04/18 00:19:55;;;;;;;0.00;0.00;;;;;;;;;;1739586;28;20226;-59
2022/04/18 00:20:47;;;;;;;0.00;0.00;;;;;;;;;;1738147;28;20602;-58
2022/04/18 00:21:38;;;;;;;0.00;0.00;;;;;;;;;;1740577;28;20210;-59
2022/04/18 00:22:30;;;;;;;0.00;0.00;;;;;;;;;;1742532;28;20285;-59
2022/04/18 00:23:22;;;;;;;0.00;0.00;;;;;;;;;;1742229;28;20203;-59
2022/04/18 00:24:16;;;;;;;0.00;0.00;;;;;;;;;;1743220;28;20550;-58
2022/04/18 00:25:09;;;;;;;0.00;0.00;;;;;;;;;;1740185;28;20258;-57
2022/04/18 00:26:02;;;;;;;0.00;0.00;;;;;;;;;;1738941;28;20245;-59
2022/04/18 00:26:53;;;;;;;0.00;0.00;;;;;;;;;;1739211;28;20214;-59
2022/04/18 00:27:45;;;;;;;0.00;0.00;;;;;;;;;;1745572;28;20623;-58
2022/04/18 00:28:36;;;;;;;0.00;0.00;;;;;;;;;;1741252;28;20202;-60
2022/04/18 00:29:28;;;;;;;0.00;0.00;;;;;;;;;;1748282;28;20196;-59
2022/04/18 00:30:20;;;;;;;0.00;0.00;;;;;;;;;;1738494;28;20211;-60
2022/04/18 00:31:12;;;;;;;0.00;0.00;;;;;;;;;;1742116;28;20280;-58
2022/04/18 00:32:04;;;;;;;0.00;0.00;;;;;;;;;;1743053;28;20213;-58
2022/04/18 00:32:56;;;;;;;0.00;0.00;;;;;;;;;;1748273;28;20190;-59
2022/04/18 00:33:47;;;;;;;0.00;0.00;;;;;;;;;;1739540;28;20203;-58
2022/04/18 00:34:39;;;;;;;0.00;0.00;;;;;;;;;;1743940;28;20252;-59
2022/04/18 00:35:31;;;;;;;0.00;0.00;;;;;;;;;;1738234;28;20241;-58
2022/04/18 00:36:23;;;;;;;0.00;0.00;;;;;;;;;;1744668;28;20206;-59
2022/04/18 00:37:14;;;;;;;0.00;0.00;;;;;;;;;;1741062;28;20222;-59
2022/04/18 00:38:06;;;;;;;0.00;0.00;;;;;;;;;;1739867;28;20550;-58
2022/04/18 00:38:57;;;;;;;0.05;0.05;;;;;;;;;;1740371;28;20202;-59
2022/04/18 00:39:49;;;;;;;0.00;0.00;;;;;;;;;;1739219;28;20230;-58
2022/04/18 00:40:42;;;;;;;0.00;0.00;;;;;;;;;;1738534;28;20636;-57
2022/04/18 00:41:34;;;;;;;0.00;0.00;;;;;;;;;;1739531;28;20625;-59
2022/04/18 00:42:25;;;;;;;0.00;0.00;;;;;;;;;;1741948;28;20206;-58
2022/04/18 00:43:18;;;;;;;0.00;0.00;;;;;;;;;;1739894;28;20233;-58
2022/04/18 00:44:09;;;;;;;0.00;0.00;;;;;;;;;;1741766;28;20301;-57
2022/04/18 00:45:01;;;;;;;0.00;0.00;;;;;;;;;;1738888;28;20202;-58
2022/04/18 00:45:52;;;;;;;0.00;0.00;;;;;;;;;;1738032;28;20827;-58
2022/04/18 00:46:44;;;;;;;0.00;0.00;;;;;;;;;;1740534;28;20310;-58
2022/04/18 00:47:36;;;;;;;0.00;0.00;;;;;;;;;;1738562;28;20214;-59
2022/04/18 00:48:28;;;;;;;0.00;0.00;;;;;;;;;;1734244;28;20210;-59
2022/04/18 00:49:19;;;;;;;0.00;0.00;;;;;;;;;;1739710;28;20214;-58
2022/04/18 00:50:11;;;;;;;0.00;0.00;;;;;;;;;;1737847;28;20302;-58
2022/04/18 00:51:04;;;;;;;0.00;0.00;;;;;;;;;;1744548;28;20230;-59
2022/04/18 00:51:57;;;;;;;0.00;0.00;;;;;;;;;;1743683;28;20252;-58
2022/04/18 00:52:49;;;;;;;0.00;0.00;;;;;;;;;;1740319;28;20585;-58
2022/04/18 00:53:42;;;;;;;0.00;0.00;;;;;;;;;;1741127;28;20198;-59
2022/04/18 00:54:34;;;;;;;0.00;0.00;;;;;;;;;;1738539;28;20230;-59
2022/04/18 00:55:27;;;;;;;0.00;0.00;;;;;;;;;;1737856;28;20207;-59
2022/04/18 00:56:20;;;;;;;0.00;0.00;;;;;;;;;;1738736;28;20198;-60
2022/04/18 00:57:12;;;;;;;0.10;0.10;;;;;;;;;;1742639;28;20216;-57
2022/04/18 00:58:05;;;;;;;0.00;0.00;;;;;;;;;;1741163;28;20209;-57
2022/04/18 00:58:57;;;;;;;0.00;0.00;;;;;;;;;;1741037;28;20976;-58
2022/04/18 00:59:48;;;;;;;0.00;0.00;;;;;;;;;;1743543;28;20692;-60
2022/04/18 01:00:40;;;;;;;0.00;0.00;;;;;;;;;;1736568;28;20231;-58
2022/04/18 01:01:32;;;;;;;0.00;0.00;;;;;;;;;;1739052;28;20199;-58
2022/04/18 01:02:24;;;;;;;0.00;0.00;;;;;;;;;;1743092;28;20202;-57
2022/04/18 01:03:15;;;;;;;0.03;0.03;;;;;;;;;;1739862;28;20225;-58
2022/04/18 01:04:07;;;;;;;0.00;0.00;;;;;;;;;;1741428;28;20229;-59
2022/04/18 01:04:59;;;;;;;0.10;0.10;;;;;;;;;;1740260;28;20206;-59
2022/04/18 01:05:51;;;;;;;0.00;0.00;;;;;;;;;;1737364;28;20238;-58
2022/04/18 01:06:42;;;;;;;0.10;0.10;;;;;;;;;;1739712;28;20457;-59
2022/04/18 01:07:35;;;;;;;0.00;0.00;;;;;;;;;;1740744;28;20226;-57
2022/04/18 01:08:28;;;;;;;0.00;0.00;;;;;;;;;;1740739;28;20288;-58
2022/04/18 01:09:20;;;;;;;0.00;0.00;;;;;;;;;;1744611;28;20205;-57
2022/04/18 01:10:12;;;;;;;0.00;0.00;;;;;;;;;;1740945;28;20207;-58
2022/04/18 01:11:06;;;;;;;0.00;0.00;;;;;;;;;;1737803;28;20250;-59
2022/04/18 01:11:59;;;;;;;0.10;0.10;;;;;;;;;;1741551;28;20202;-58
2022/04/18 01:12:51;;;;;;;0.00;0.00;;;;;;;;;;1739120;28;20208;-59
2022/04/18 01:13:42;;;;;;;0.00;0.00;;;;;;;;;;1742051;28;20898;-58
2022/04/18 01:14:36;;;;;;;0.00;0.00;;;;;;;;;;1738079;28;20199;-58
2022/04/18 01:15:27;;;;;;;0.00;0.00;;;;;;;;;;1738222;28;20202;-58
2022/04/18 01:16:19;;;;;;;0.00;0.00;;;;;;;;;;1738646;28;20285;-58
2022/04/18 01:17:10;;;;;;;0.00;0.00;;;;;;;;;;1743363;28;20203;-57
2022/04/18 01:18:02;;;;;;;0.00;0.00;;;;;;;;;;1738953;28;20206;-58
2022/04/18 01:18:55;;;;;;;0.00;0.00;;;;;;;;;;1740864;28;20306;-59
2022/04/18 01:19:48;;;;;;;0.00;0.00;;;;;;;;;;1744167;28;20545;-60
2022/04/18 01:20:43;;;;;;;0.00;0.00;;;;;;;;;;1740738;28;20234;-60
2022/04/18 01:21:35;;;;;;;0.00;0.00;;;;;;;;;;1744087;28;20236;-58
2022/04/18 01:22:27;;;;;;;0.00;0.00;;;;;;;;;;1742611;28;20209;-56
2022/04/18 01:23:18;;;;;;;0.00;0.00;;;;;;;;;;1743269;28;20209;-57
2022/04/18 01:29:05;;;;;;;0.00;0.00;;;;;;;;;;1742086;28;20226;-59
2022/04/18 01:29:57;;;;;;;0.00;0.00;;;;;;;;;;1740320;28;20289;-58
2022/04/18 01:30:49;;;;;;;0.00;0.00;;;;;;;;;;1740072;28;20230;-58
2022/04/18 01:31:42;;;;;;;0.00;0.00;;;;;;;;;;1741676;28;20237;-58
2022/04/18 01:32:34;;;;;;;0.00;0.00;;;;;;;;;;1739347;28;20264;-59
2022/04/18 01:33:26;;;;;;;0.10;0.10;;;;;;;;;;1739115;28;20230;-59
2022/04/18 01:34:19;;;;;;;0.00;0.00;;;;;;;;;;1742145;28;20206;-57
2022/04/18 01:35:10;;;;;;;0.00;0.00;;;;;;;;;;1740079;28;20885;-57
2022/04/18 01:36:04;;;;;;;0.00;0.00;;;;;;;;;;1742801;28;20226;-58
2022/04/18 01:36:55;;;;;;;0.03;0.03;;;;;;;;;;1741480;28;20218;-59
2022/04/18 01:37:47;;;;;;;0.00;0.00;;;;;;;;;;1742691;28;20202;-59
2022/04/18 01:38:39;;;;;;;0.00;0.00;;;;;;;;;;1742436;28;20649;-58
2022/04/18 01:39:31;;;;;;;0.00;0.00;;;;;;;;;;1743661;28;20613;-59
2022/04/18 01:40:22;;;;;;;0.00;0.00;;;;;;;;;;1739317;28;20201;-59
2022/04/18 01:41:14;;;;;;;0.10;0.10;;;;;;;;;;1739251;28;20318;-58
2022/04/18 01:42:05;;;;;;;0.00;0.00;;;;;;;;;;1740094;28;20213;-58
2022/04/18 01:42:58;;;;;;;0.00;0.00;;;;;;;;;;1738939;28;20207;-57
2022/04/18 01:43:49;;;;;;;0.00;0.00;;;;;;;;;;1742676;28;20198;-59
2022/04/18 01:44:41;;;;;;;0.00;0.00;;;;;;;;;;1737708;28;20207;-59
2022/04/18 01:45:32;;;;;;;0.05;0.05;;;;;;;;;;1739234;28;20268;-59
2022/04/18 01:46:25;;;;;;;0.00;0.00;;;;;;;;;;1738396;28;21993;-58
2022/04/18 01:47:16;;;;;;;0.05;0.05;;;;;;;;;;1740445;28;20221;-60
2022/04/18 01:48:08;;;;;;;0.00;0.00;;;;;;;;;;1741456;28;20194;-58
2022/04/18 01:49:00;;;;;;;0.00;0.00;;;;;;;;;;1740130;28;20211;-60
2022/04/18 01:49:52;;;;;;;0.00;0.00;;;;;;;;;;1739052;28;20202;-60
2022/04/18 01:50:43;;;;;;;0.00;0.00;;;;;;;;;;1739496;28;20529;-58
2022/04/18 01:51:37;;;;;;;0.00;0.00;;;;;;;;;;1738576;28;20674;-57
2022/04/18 01:52:28;;;;;;;0.00;0.00;;;;;;;;;;1744586;28;20475;-60
2022/04/18 01:53:20;;;;;;;0.00;0.00;;;;;;;;;;1742914;28;20240;-58
2022/04/18 01:54:11;;;;;;;0.00;0.00;;;;;;;;;;1742420;28;20210;-59
2022/04/18 01:55:04;;;;;;;0.00;0.00;;;;;;;;;;1742106;28;20203;-59
2022/04/18 01:55:58;;;;;;;0.00;0.00;;;;;;;;;;1737611;28;20586;-57
2022/04/18 01:56:50;;;;;;;0.20;0.20;;;;;;;;;;1740857;28;20211;-57
2022/04/18 01:57:41;;;;;;;0.00;0.00;;;;;;;;;;1739131;28;20199;-59
2022/04/18 01:58:34;;;;;;;0.00;0.00;;;;;;;;;;1743265;28;20203;-59
2022/04/18 01:59:25;;;;;;;0.00;0.00;;;;;;;;;;1743389;28;20237;-59
2022/04/18 02:00:17;;;;;;;0.00;0.00;;;;;;;;;;1740545;28;20206;-58
2022/04/18 02:01:08;;;;;;;0.00;0.00;;;;;;;;;;1738453;28;20227;-58
2022/04/18 02:02:00;;;;;;;0.00;0.00;;;;;;;;;;1742089;28;20206;-59
2022/04/18 02:02:55;;;;;;;0.00;0.00;;;;;;;;;;1739198;28;20212;-59
2022/04/18 02:03:47;;;;;;;0.00;0.00;;;;;;;;;;1740536;28;20203;-59
2022/04/18 02:04:38;;;;;;;0.00;0.00;;;;;;;;;;1738247;28;20210;-59
2022/04/18 02:05:30;;;;;;;0.00;0.00;;;;;;;;;;1738651;28;20234;-59
2022/04/18 02:06:22;;;;;;;0.00;0.00;;;;;;;;;;1738072;28;20191;-59
2022/04/18 02:07:15;;;;;;;0.00;0.00;;;;;;;;;;1741752;28;20213;-59
2022/04/18 02:08:08;;;;;;;0.00;0.00;;;;;;;;;;1743953;28;20210;-59
2022/04/18 02:08:59;;;;;;;0.00;0.00;;;;;;;;;;1741774;28;20202;-59
2022/04/18 02:09:51;;;;;;;0.00;0.00;;;;;;;;;;1740111;28;20198;-59
2022/04/18 02:10:42;;;;;;;0.00;0.00;;;;;;;;;;1739579;28;20243;-58
2022/04/18 02:11:35;;;;;;;0.00;0.00;;;;;;;;;;1741024;28;20576;-59
2022/04/18 02:12:26;;;;;;;0.00;0.00;;;;;;;;;;1741935;28;20638;-58
2022/04/18 02:13:18;;;;;;;0.00;0.00;;;;;;;;;;1740975;28;20580;-59
2022/04/18 02:14:09;;;;;;;0.00;0.00;;;;;;;;;;1741705;28;20209;-58
2022/04/18 02:15:01;;;;;;;0.00;0.00;;;;;;;;;;1740982;28;20202;-59
2022/04/18 02:15:54;;;;;;;0.00;0.00;;;;;;;;;;1738701;28;20235;-59
2022/04/18 02:16:46;;;;;;;0.10;0.10;;;;;;;;;;1740785;28;20217;-59
2022/04/18 02:17:37;;;;;;;0.00;0.00;;;;;;;;;;1745541;28;20210;-59
2022/04/18 02:18:29;;;;;;;0.00;0.00;;;;;;;;;;1749023;28;20244;-59
2022/04/18 02:19:20;;;;;;;0.00;0.00;;;;;;;;;;1749147;28;20221;-58
2022/04/18 02:20:13;;;;;;;0.00;0.00;;;;;;;;;;1747383;28;20237;-58
2022/04/18 02:21:04;;;;;;;0.00;0.00;;;;;;;;;;1752795;28;20241;-58
2022/04/18 02:21:56;;;;;;;0.00;0.00;;;;;;;;;;1748531;28;20202;-58
2022/04/18 02:22:49;;;;;;;0.10;0.10;;;;;;;;;;1753383;28;20204;-58
2022/04/18 02:23:41;;;;;;;0.00;0.00;;;;;;;;;;1750030;28;20209;-58
2022/04/18 02:24:32;;;;;;;0.00;0.00;;;;;;;;;;1747797;28;20404;-58
2022/04/18 02:25:24;;;;;;;0.00;0.00;;;;;;;;;;1748116;28;20206;-58
2022/04/18 02:26:16;;;;;;;0.00;0.00;;;;;;;;;;1753694;28;20193;-58
2022/04/18 02:27:09;;;;;;;0.00;0.00;;;;;;;;;;1751158;28;20229;-59
2022/04/18 02:28:03;;;;;;;0.00;0.00;;;;;;;;;;1746729;28;20289;-59
2022/04/18 02:28:55;;;;;;;0.00;0.00;;;;;;;;;;1749071;28;20260;-58
2022/04/18 02:29:46;;;;;;;0.00;0.00;;;;;;;;;;1753090;28;20567;-59
2022/04/18 02:30:38;;;;;;;0.10;0.10;;;;;;;;;;1748387;28;20294;-59
2022/04/18 02:31:30;;;;;;;0.00;0.00;;;;;;;;;;1751470;28;20218;-59
2022/04/18 02:33:31;;;;;;;0.00;0.00;;;;;;;;;;1747959;28;20205;-59
2022/04/18 02:34:23;;;;;;;0.00;0.00;;;;;;;;;;1752539;28;20221;-59
2022/04/18 02:35:14;;;;;;;0.00;0.00;;;;;;;;;;1747989;28;20331;-59
2022/04/18 02:36:06;;;;;;;0.00;0.00;;;;;;;;;;1750773;28;20221;-58
2022/04/18 02:36:57;;;;;;;0.00;0.00;;;;;;;;;;1749671;28;20649;-59
2022/04/18 02:37:51;;;;;;;0.00;0.00;;;;;;;;;;1748223;28;20586;-58
2022/04/18 02:38:42;;;;;;;0.00;0.00;;;;;;;;;;1750767;28;20214;-58
2022/04/18 02:39:35;;;;;;;0.00;0.00;;;;;;;;;;1747392;28;20202;-58
2022/04/18 02:40:26;;;;;;;0.00;0.00;;;;;;;;;;1745677;28;20203;-58
2022/04/18 02:41:18;;;;;;;0.00;0.00;;;;;;;;;;1745755;28;20197;-58
2022/04/18 02:42:09;;;;;;;0.00;0.00;;;;;;;;;;1750362;28;20210;-59
2022/04/18 02:43:01;;;;;;;0.00;0.00;;;;;;;;;;1752608;28;20205;-58
2022/04/18 02:43:53;;;;;;;0.00;0.00;;;;;;;;;;1749836;28;20210;-58
2022/04/18 02:44:46;;;;;;;0.00;0.00;;;;;;;;;;1752282;28;20599;-58
2022/04/18 02:45:37;;;;;;;0.10;0.10;;;;;;;;;;1745416;28;20280;-58
2022/04/18 02:46:30;;;;;;;0.00;0.00;;;;;;;;;;1747201;28;20214;-59
2022/04/18 02:47:22;;;;;;;0.10;0.10;;;;;;;;;;1747992;28;20696;-58
2022/04/18 02:48:14;;;;;;;0.00;0.00;;;;;;;;;;1749197;28;20229;-58
2022/04/18 02:49:05;;;;;;;0.10;0.10;;;;;;;;;;1751296;28;20665;-58
2022/04/18 02:49:57;;;;;;;0.00;0.00;;;;;;;;;;1750192;28;20256;-58
2022/04/18 02:50:48;;;;;;;0.00;0.00;;;;;;;;;;1746241;28;20294;-58
2022/04/18 02:51:41;;;;;;;0.00;0.00;;;;;;;;;;1748806;28;20328;-58
2022/04/18 02:52:32;;;;;;;0.00;0.00;;;;;;;;;;1748293;28;20210;-58
2022/04/18 02:53:26;;;;;;;0.05;0.05;;;;;;;;;;1748374;28;20618;-58
2022/04/18 02:54:17;;;;;;;0.00;0.00;;;;;;;;;;1749541;28;20240;-58
2022/04/18 02:55:11;;;;;;;0.10;0.10;;;;;;;;;;1747292;28;20202;-58
2022/04/18 02:56:02;;;;;;;0.00;0.00;;;;;;;;;;1752219;28;20340;-58
2022/04/18 02:56:54;;;;;;;0.10;0.10;;;;;;;;;;1749356;28;20994;-58
2022/04/18 02:57:46;;;;;;;0.10;0.10;;;;;;;;;;1753135;28;20202;-58
2022/04/18 02:58:38;;;;;;;0.00;0.00;;;;;;;;;;1749664;28;20208;-58
2022/04/18 02:59:29;;;;;;;0.00;0.00;;;;;;;;;;1751854;28;20659;-58
2022/04/18 03:00:21;;;;;;;0.03;0.03;;;;;;;;;;1746329;28;20210;-58
2022/04/18 03:01:13;;;;;;;0.00;0.00;;;;;;;;;;1747205;28;20237;-59
2022/04/18 03:02:05;;;;;;;0.10;0.10;;;;;;;;;;1751701;28;20691;-58
2022/04/18 03:02:56;;;;;;;0.03;0.03;;;;;;;;;;1746716;28;20214;-58
2022/04/18 03:03:49;;;;;;;0.00;0.00;;;;;;;;;;1750988;28;20194;-58
2022/04/18 03:04:40;;;;;;;0.00;0.00;;;;;;;;;;1752397;28;20208;-58
2022/04/18 03:05:32;;;;;;;0.00;0.00;;;;;;;;;;1747884;28;20244;-58
2022/04/18 03:06:23;;;;;;;0.10;0.10;;;;;;;;;;1745927;28;20210;-58
2022/04/18 03:07:16;;;;;;;0.00;0.00;;;;;;;;;;1751549;28;20217;-58
2022/04/18 03:08:07;;;;;;;0.00;0.00;;;;;;;;;;1752945;28;20363;-58
2022/04/18 03:09:01;;;;;;;0.00;0.00;;;;;;;;;;1749110;28;20271;-58
2022/04/18 03:09:52;;;;;;;0.05;0.05;;;;;;;;;;1751857;28;20197;-58
2022/04/18 03:11:54;;;;;;;0.05;0.05;;;;;;;;;;1749683;28;20243;-58
2022/04/18 03:12:45;;;;;;;0.00;0.00;;;;;;;;;;1745316;28;20206;-58
2022/04/18 03:13:43;;;;;;;0.00;0.00;;;;;;;;;;1748448;28;20195;-59
2022/04/18 03:14:35;;;;;;;0.00;0.00;;;;;;;;;;1752067;28;20194;-58
2022/04/18 03:15:27;;;;;;;0.00;0.00;;;;;;;;;;1746993;28;20327;-58
2022/04/18 03:16:18;;;;;;;0.05;0.05;;;;;;;;;;1752239;28;20216;-58
2022/04/18 03:17:11;;;;;;;0.00;0.00;;;;;;;;;;1748294;28;20681;-58
2022/04/18 03:18:02;;;;;;;0.17;0.17;;;;;;;;;;1745966;28;20267;-59
2022/04/18 03:18:55;;;;;;;0.00;0.00;;;;;;;;;;1751101;28;20902;-58
2022/04/18 03:19:46;;;;;;;0.00;0.00;;;;;;;;;;1750762;28;20308;-58
2022/04/18 03:20:38;;;;;;;0.00;0.00;;;;;;;;;;1745808;28;20226;-59
2022/04/18 03:21:29;;;;;;;0.00;0.00;;;;;;;;;;1746732;28;20210;-58
2022/04/18 03:22:23;;;;;;;0.00;0.00;;;;;;;;;;1749705;28;20607;-59
2022/04/18 03:23:15;;;;;;;0.20;0.20;;;;;;;;;;1747587;28;20271;-59
2022/04/18 03:24:08;;;;;;;0.00;0.00;;;;;;;;;;1748106;28;20201;-59
2022/04/18 03:25:00;;;;;;;0.00;0.00;;;;;;;;;;1746234;28;20206;-58
2022/04/18 03:25:52;;;;;;;0.05;0.05;;;;;;;;;;1744905;28;20614;-59
2022/04/18 03:26:45;;;;;;;0.05;0.05;;;;;;;;;;1746756;28;20225;-59
2022/04/18 03:27:37;;;;;;;0.00;0.00;;;;;;;;;;1746839;28;20221;-58
2022/04/18 03:28:28;;;;;;;0.00;0.00;;;;;;;;;;1748362;28;20204;-59
2022/04/18 03:29:20;;;;;;;0.00;0.00;;;;;;;;;;1752267;28;20306;-58
2022/04/18 03:30:11;;;;;;;0.00;0.00;;;;;;;;;;1749584;28;20280;-59
2022/04/18 03:31:04;;;;;;;0.00;0.00;;;;;;;;;;1749360;28;20325;-59
2022/04/18 03:31:55;;;;;;;0.00;0.00;;;;;;;;;;1748831;28;20201;-59
2022/04/18 03:32:47;;;;;;;0.20;0.20;;;;;;;;;;1745818;28;20252;-59
2022/04/18 03:33:39;;;;;;;0.00;0.00;;;;;;;;;;1748357;28;20198;-59
2022/04/18 03:34:31;;;;;;;0.00;0.00;;;;;;;;;;1750995;28;20797;-58
2022/04/18 03:35:22;;;;;;;0.00;0.00;;;;;;;;;;1746906;28;20214;-58
2022/04/18 03:39:51;;;;;;;0.00;0.00;;;;;;;;;;1746210;28;20599;-58
2022/04/18 03:40:42;;;;;;;0.00;0.00;;;;;;;;;;1746252;28;20509;-58
2022/04/18 03:41:34;;;;;;;0.00;0.00;;;;;;;;;;1746702;28;20202;-59
2022/04/18 03:42:30;;;;;;;0.00;0.00;;;;;;;;;;1749043;28;20673;-58
2022/04/18 03:43:22;;;;;;;0.00;0.00;;;;;;;;;;1750144;28;20663;-58
2022/04/18 03:44:13;;;;;;;0.00;0.00;;;;;;;;;;1751013;28;20205;-59
2022/04/18 03:45:06;;;;;;;0.00;0.00;;;;;;;;;;1749565;28;20213;-58
2022/04/18 03:45:58;;;;;;;0.10;0.10;;;;;;;;;;1745411;28;20616;-59
2022/04/18 03:46:50;;;;;;;0.10;0.10;;;;;;;;;;1747097;28;20224;-59
2022/04/18 03:47:41;;;;;;;0.00;0.00;;;;;;;;;;1751851;28;20585;-58
2022/04/18 03:48:33;;;;;;;0.10;0.10;;;;;;;;;;1748064;28;20691;-59
2022/04/18 03:49:24;;;;;;;0.00;0.00;;;;;;;;;;1752755;28;20202;-59
2022/04/18 03:50:17;;;;;;;0.00;0.00;;;;;;;;;;1748821;28;20256;-59
2022/04/18 03:51:08;;;;;;;0.00;0.00;;;;;;;;;;1748003;28;20237;-58
2022/04/18 03:51:59;;;;;;;0.00;0.00;;;;;;;;;;1747593;28;20759;-58
2022/04/18 03:52:51;;;;;;;0.00;0.00;;;;;;;;;;1747427;28;20194;-58
2022/04/18 03:53:42;;;;;;;0.00;0.00;;;;;;;;;;1750887;28;20205;-59
2022/04/18 03:54:35;;;;;;;0.20;0.20;;;;;;;;;;1746424;28;20195;-58
2022/04/18 03:55:29;;;;;;;0.20;0.20;;;;;;;;;;1745433;28;20229;-59
2022/04/18 03:56:21;;;;;;;0.00;0.00;;;;;;;;;;1751192;28;20459;-58
2022/04/18 03:57:13;;;;;;;0.10;0.10;;;;;;;;;;1750753;28;20599;-59
2022/04/18 03:58:05;;;;;;;0.00;0.00;;;;;;;;;;1751126;28;20200;-58
2022/04/18 03:58:57;;;;;;;0.10;0.10;;;;;;;;;;1751039;28;20216;-58
2022/04/18 03:59:49;;;;;;;0.00;0.00;;;;;;;;;;1746953;28;20285;-58
2022/04/18 04:00:42;;;;;;;0.00;0.00;;;;;;;;;;1747297;28;20202;-58
2022/04/18 04:01:35;;;;;;;0.00;0.00;;;;;;;;;;1746523;28;20206;-58
2022/04/18 04:02:26;;;;;;;0.00;0.00;;;;;;;;;;1752038;28;20613;-59
2022/04/18 04:03:18;;;;;;;0.00;0.00;;;;;;;;;;1750495;28;20309;-59
2022/04/18 04:04:10;;;;;;;0.00;0.00;;;;;;;;;;1752546;28;20231;-59
2022/04/18 04:05:02;;;;;;;0.00;0.00;;;;;;;;;;1749496;28;20568;-59
2022/04/18 04:05:53;;;;;;;0.00;0.00;;;;;;;;;;1747391;28;20786;-59
2022/04/18 04:06:44;;;;;;;0.00;0.00;;;;;;;;;;1750998;28;20225;-59
2022/04/18 04:07:37;;;;;;;0.00;0.00;;;;;;;;;;1752051;28;20226;-59
2022/04/18 04:08:29;;;;;;;0.00;0.00;;;;;;;;;;1743614;28;20202;-59
2022/04/18 04:09:21;;;;;;;0.00;0.00;;;;;;;;;;1750525;28;20197;-58
2022/04/18 04:10:12;;;;;;;0.00;0.00;;;;;;;;;;1749432;28;20417;-59
2022/04/18 04:11:06;;;;;;;0.00;0.00;;;;;;;;;;1749721;28;20241;-59
2022/04/18 04:11:57;;;;;;;0.00;0.00;;;;;;;;;;1748637;28;20640;-59
2022/04/18 04:12:49;;;;;;;0.00;0.00;;;;;;;;;;1747535;28;20194;-59
2022/04/18 04:13:40;;;;;;;0.10;0.10;;;;;;;;;;1749507;28;20255;-59
2022/04/18 04:14:32;;;;;;;0.00;0.00;;;;;;;;;;1745492;28;20256;-58
2022/04/18 04:15:24;;;;;;;0.00;0.00;;;;;;;;;;1743842;28;20206;-58
2022/04/18 04:16:15;;;;;;;0.00;0.00;;;;;;;;;;1751400;28;20723;-58
2022/04/18 04:17:07;;;;;;;0.00;0.00;;;;;;;;;;1748218;28;20223;-58
2022/04/18 04:17:58;;;;;;;0.00;0.00;;;;;;;;;;1752162;28;20206;-59
2022/04/18 04:18:51;;;;;;;0.10;0.10;;;;;;;;;;1748644;28;20589;-59
2022/04/18 04:19:42;;;;;;;0.10;0.10;;;;;;;;;;1751775;28;20642;-59
2022/04/18 04:20:34;;;;;;;0.00;0.00;;;;;;;;;;1747432;28;20215;-59
2022/04/18 04:21:26;;;;;;;0.00;0.00;;;;;;;;;;1745674;28;20206;-58
2022/04/18 04:22:18;;;;;;;0.00;0.00;;;;;;;;;;1749440;28;20255;-59
2022/04/18 04:23:09;;;;;;;0.00;0.00;;;;;;;;;;1746266;28;20606;-59
2022/04/18 04:24:00;;;;;;;0.00;0.00;;;;;;;;;;1747927;28;20656;-58
2022/04/18 04:24:52;;;;;;;0.00;0.00;;;;;;;;;;1746570;28;20198;-59
2022/04/18 04:25:44;;;;;;;0.00;0.00;;;;;;;;;;1746970;28;20238;-59
2022/04/18 04:26:37;;;;;;;0.00;0.00;;;;;;;;;;1751744;28;20217;-59
2022/04/18 04:27:30;;;;;;;0.00;0.00;;;;;;;;;;1748244;28;20225;-59
2022/04/18 04:28:22;;;;;;;0.00;0.00;;;;;;;;;;1746888;28;20624;-59
2022/04/18 04:29:17;;;;;;;0.00;0.00;;;;;;;;;;1750836;28;20213;-59
2022/04/18 04:30:10;;;;;;;0.10;0.10;;;;;;;;;;1747158;28;20202;-59
2022/04/18 04:31:02;;;;;;;0.10;0.10;;;;;;;;;;1749685;28;20232;-59
2022/04/18 04:31:54;;;;;;;0.00;0.00;;;;;;;;;;1747415;28;20194;-59
2022/04/18 04:32:48;;;;;;;0.00;0.00;;;;;;;;;;1751630;28;20221;-58
2022/04/18 04:33:40;;;;;;;0.00;0.00;;;;;;;;;;1749660;28;20520;-58
2022/04/18 04:34:31;;;;;;;0.00;0.00;;;;;;;;;;1742913;28;20268;-59
2022/04/18 04:35:23;;;;;;;0.00;0.00;;;;;;;;;;1745809;28;20197;-59
2022/04/18 04:36:15;;;;;;;0.00;0.00;;;;;;;;;;1751534;28;20491;-59
2022/04/18 04:37:07;;;;;;;0.03;0.03;;;;;;;;;;1749776;28;20691;-58
2022/04/18 04:38:01;;;;;;;0.00;0.00;;;;;;;;;;1745885;28;20255;-59
2022/04/18 04:38:53;;;;;;;0.00;0.00;;;;;;;;;;1748679;28;20674;-59
2022/04/18 04:39:44;;;;;;;0.00;0.00;;;;;;;;;;1745456;28;20240;-59
2022/04/18 04:40:37;;;;;;;0.00;0.00;;;;;;;;;;1745474;28;20332;-59
2022/04/18 04:41:28;;;;;;;0.00;0.00;;;;;;;;;;1744122;28;20198;-59
2022/04/18 04:42:21;;;;;;;0.00;0.00;;;;;;;;;;1747020;28;20633;-59
2022/04/18 04:43:13;;;;;;;0.00;0.00;;;;;;;;;;1745931;28;20237;-57
2022/04/18 04:44:05;;;;;;;0.00;0.00;;;;;;;;;;1747445;28;20747;-58
2022/04/18 04:44:59;;;;;;;0.00;0.00;;;;;;;;;;1745541;28;20233;-59
2022/04/18 04:45:52;;;;;;;0.00;0.00;;;;;;;;;;1747386;28;20229;-59
2022/04/18 04:46:45;;;;;;;0.00;0.00;;;;;;;;;;1750262;28;20232;-59
2022/04/18 04:47:37;;;;;;;0.00;0.00;;;;;;;;;;1750432;28;20221;-59
2022/04/18 04:48:29;;;;;;;0.00;0.00;;;;;;;;;;1750423;28;20255;-59
2022/04/18 04:49:21;;;;;;;0.00;0.00;;;;;;;;;;1751363;28;20201;-58
2022/04/18 04:50:12;;;;;;;0.10;0.10;;;;;;;;;;1750685;28;20588;-58
2022/04/18 04:51:04;;;;;;;0.00;0.00;;;;;;;;;;1747264;28;20667;-58
2022/04/18 04:51:56;;;;;;;0.00;0.00;;;;;;;;;;1749657;28;20667;-59
2022/04/18 04:52:48;;;;;;;0.00;0.00;;;;;;;;;;1747225;28;20579;-58
2022/04/18 04:53:39;;;;;;;0.00;0.00;;;;;;;;;;1748515;28;20208;-58
2022/04/18 04:54:31;;;;;;;0.00;0.00;;;;;;;;;;1745402;28;20252;-59
2022/04/18 04:55:23;;;;;;;0.00;0.00;;;;;;;;;;1746740;28;20239;-59
2022/04/18 04:56:15;;;;;;;0.00;0.00;;;;;;;;;;1749852;28;20237;-59
2022/04/18 04:57:06;;;;;;;0.00;0.00;;;;;;;;;;1750463;28;20332;-59
2022/04/18 04:58:00;;;;;;;0.00;0.00;;;;;;;;;;1748840;28;20200;-59
2022/04/18 04:58:53;;;;;;;0.00;0.00;;;;;;;;;;1751854;28;20200;-59
2022/04/18 04:59:45;;;;;;;0.10;0.10;;;;;;;;;;1744297;28;20260;-58
2022/04/18 05:00:36;;;;;;;0.10;0.10;;;;;;;;;;1745624;28;20237;-59
2022/04/18 05:01:29;;;;;;;0.08;0.08;;;;;;;;;;1745202;28;20340;-59
2022/04/18 05:02:20;;;;;;;0.00;0.00;;;;;;;;;;1749440;28;20202;-59
2022/04/18 05:03:11;;;;;;;0.00;0.00;;;;;;;;;;1751715;28;20292;-59
2022/04/18 05:04:04;;;;;;;0.00;0.00;;;;;;;;;;1746652;28;20198;-59
2022/04/18 05:04:55;;;;;;;0.00;0.00;;;;;;;;;;1746443;28;20684;-59
2022/04/18 05:05:47;;;;;;;0.00;0.00;;;;;;;;;;1747870;28;20335;-58
2022/04/18 05:06:39;;;;;;;0.00;0.00;;;;;;;;;;1750173;28;20718;-59
2022/04/18 05:07:31;;;;;;;0.00;0.00;;;;;;;;;;1749437;28;20225;-58
2022/04/18 05:08:22;;;;;;;0.00;0.00;;;;;;;;;;1751223;28;20593;-59
2022/04/18 05:09:14;;;;;;;0.00;0.00;;;;;;;;;;1747046;28;20206;-59
2022/04/18 05:10:06;;;;;;;0.00;0.00;;;;;;;;;;1746410;28;20574;-59
2022/04/18 05:10:59;;;;;;;0.10;0.10;;;;;;;;;;1747574;28;20229;-59
2022/04/18 05:11:52;;;;;;;0.00;0.00;;;;;;;;;;1749596;28;20208;-59
2022/04/18 05:12:45;;;;;;;0.00;0.00;;;;;;;;;;1746932;28;20241;-59
2022/04/18 05:13:37;;;;;;;0.10;0.10;;;;;;;;;;1748816;28;20673;-58
2022/04/18 05:14:29;;;;;;;0.00;0.00;;;;;;;;;;1745006;28;20361;-59
2022/04/18 05:15:21;;;;;;;0.03;0.03;;;;;;;;;;1745112;28;20214;-59
2022/04/18 05:16:13;;;;;;;0.00;0.00;;;;;;;;;;1751473;28;20221;-59
2022/04/18 05:17:05;;;;;;;0.10;0.10;;;;;;;;;;1747750;28;20225;-59
2022/04/18 05:17:57;;;;;;;0.00;0.00;;;;;;;;;;1744398;28;20265;-58
2022/04/18 05:18:48;;;;;;;0.08;0.08;;;;;;;;;;1743308;28;20417;-59
2022/04/18 05:19:40;;;;;;;0.00;0.00;;;;;;;;;;1745341;28;20230;-59
2022/04/18 05:20:31;;;;;;;0.00;0.00;;;;;;;;;;1741331;28;20304;-58
2022/04/18 05:21:24;;;;;;;0.00;0.00;;;;;;;;;;1745038;28;20206;-58
2022/04/18 05:22:15;;;;;;;0.00;0.00;;;;;;;;;;1744115;28;20217;-59